Time;durP1;ratioP1;P1;durP2;ratioP2;P2;SDS_P1;SDS_P2;PMS_P1;PMS_P2;Temp;Humidity;BMP_temperature;BMP_pressure;BME280_temperature;BME280_humidity;BME280_pressure;Samples;Min_cycle;Max_cycle;Signal;HPM_P1;HPM_P2
2022/08/13 00:00:32;;;;;;;;;;;25.90;32.90;;;;;;1496923;77;821;-70
2022/08/13 00:02:34;;;;;;;;;;;25.90;33.00;;;;;;1503597;77;1923;-70
2022/08/13 00:04:36;;;;;;;;;;;25.90;32.90;;;;;;1508788;77;1137;-70
2022/08/13 00:08:48;;;;;;;;;;;25.90;33.00;;;;;;1495841;77;833;-69
2022/08/13 00:10:48;;;;;;;;;;;25.90;33.00;;;;;;1514300;77;1669;-71
2022/08/13 00:13:03;;;;;;;;;;;25.90;33.00;;;;;;1528496;77;716;-70
2022/08/13 00:15:04;;;;;;;;;;;25.90;32.80;;;;;;1510235;77;1697;-70
2022/08/13 00:17:07;;;;;;;;;;;25.90;32.90;;;;;;1518251;77;2128;-70
2022/08/13 00:19:10;;;;;;;;;;;25.90;33.00;;;;;;1519831;77;1854;-71
2022/08/13 00:21:12;;;;;;;;;;;25.90;33.10;;;;;;1507220;77;1573;-71
2022/08/13 00:23:14;;;;;;;;;;;25.90;33.00;;;;;;1525725;77;1897;-71
2022/08/13 00:25:16;;;;;;;;;;;25.90;33.10;;;;;;1526489;76;1146;-71
2022/08/13 00:27:19;;;;;;;;;;;25.90;33.00;;;;;;1509854;77;706;-71
2022/08/13 00:29:21;;;;;;;;;;;25.90;33.10;;;;;;1518078;77;704;-71
2022/08/13 00:31:23;;;;;;;;;;;25.90;33.00;;;;;;1518702;77;748;-71
2022/08/13 00:33:25;;;;;;;;;;;26.00;33.60;;;;;;1505322;77;726;-71
2022/08/13 00:35:27;;;;;;;;;;;25.90;33.00;;;;;;1499618;77;1161;-71
2022/08/13 00:37:29;;;;;;;;;;;25.90;33.00;;;;;;1501842;77;787;-71
2022/08/13 00:39:30;;;;;;;;;;;25.90;33.00;;;;;;1518463;77;813;-69
2022/08/13 00:41:45;;;;;;;;;;;25.90;33.00;;;;;;1521358;77;756;-70
2022/08/13 00:43:44;;;;;;;;;;;25.90;33.10;;;;;;1518729;77;1924;-68
2022/08/13 00:45:46;;;;;;;;;;;25.90;33.10;;;;;;1517900;76;1162;-69
2022/08/13 00:50:08;;;;;;;;;;;25.90;33.10;;;;;;1523124;77;1680;-70
2022/08/13 00:52:10;;;;;;;;;;;25.90;33.10;;;;;;1506010;77;676;-70
2022/08/13 00:54:13;;;;;;;;;;;25.90;33.10;;;;;;1507864;77;631;-69
2022/08/13 00:56:16;;;;;;;;;;;25.80;33.10;;;;;;1517442;77;1068;-70
2022/08/13 00:58:19;;;;;;;;;;;25.90;33.10;;;;;;1507165;77;857;-71
2022/08/13 01:00:22;;;;;;;;;;;25.80;33.20;;;;;;1509631;77;704;-71
2022/08/13 01:02:24;;;;;;;;;;;25.90;33.10;;;;;;1510532;78;1944;-70
2022/08/13 01:04:26;;;;;;;;;;;25.80;33.10;;;;;;1511944;78;1138;-69
2022/08/13 01:06:28;;;;;;;;;;;25.90;33.10;;;;;;1501585;78;712;-71
2022/08/13 01:08:34;;;;;;;;;;;25.90;33.10;;;;;;1504265;78;716;-71
2022/08/13 01:10:36;;;;;;;;;;;25.80;33.10;;;;;;1510755;78;785;-71
2022/08/13 01:12:38;;;;;;;;;;;25.90;33.10;;;;;;1507069;78;803;-71
2022/08/13 01:14:40;;;;;;;;;;;25.90;33.10;;;;;;1501302;78;1124;-71
2022/08/13 01:16:42;;;;;;;;;;;25.80;33.20;;;;;;1492332;78;744;-70
2022/08/13 01:18:45;;;;;;;;;;;25.80;33.10;;;;;;1517913;77;756;-69
2022/08/13 01:20:48;;;;;;;;;;;25.80;33.20;;;;;;1510526;78;783;-69
2022/08/13 01:22:52;;;;;;;;;;;25.80;33.20;;;;;;1505391;78;1938;-69
2022/08/13 01:24:55;;;;;;;;;;;25.90;33.30;;;;;;1514236;78;1165;-70
2022/08/13 01:26:57;;;;;;;;;;;25.90;33.30;;;;;;1516921;77;775;-71
2022/08/13 01:29:04;;;;;;;;;;;25.90;33.20;;;;;;1517185;78;728;-70
2022/08/13 01:31:05;;;;;;;;;;;25.90;33.30;;;;;;1505549;78;1677;-70
2022/08/13 01:33:08;;;;;;;;;;;25.90;33.20;;;;;;1467111;79;1623;-70
2022/08/13 01:35:10;;;;;;;;;;;25.90;33.20;;;;;;1507194;78;1154;-70
2022/08/13 01:37:15;;;;;;;;;;;25.80;33.20;;;;;;1501939;78;768;-69
2022/08/13 01:39:17;;;;;;;;;;;25.90;33.20;;;;;;1510838;78;680;-69
2022/08/13 01:41:21;;;;;;;;;;;25.80;33.20;;;;;;1509276;78;723;-70
2022/08/13 01:43:25;;;;;;;;;;;25.90;33.40;;;;;;1508910;78;1917;-70
2022/08/13 01:45:26;;;;;;;;;;;25.90;33.40;;;;;;1498288;78;1197;-70
2022/08/13 01:52:09;;;;;;;;;;;25.90;33.20;;;;;;1503167;78;1650;-69
2022/08/13 01:54:11;;;;;;;;;;;25.80;33.30;;;;;;1493371;78;718;-70
2022/08/13 01:56:16;;;;;;;;;;;25.90;33.30;;;;;;1514817;78;1140;-70
2022/08/13 01:58:18;;;;;;;;;;;25.90;33.30;;;;;;1514640;78;1673;-70
2022/08/13 02:00:21;;;;;;;;;;;25.90;33.30;;;;;;1507843;78;724;-70
2022/08/13 02:02:27;;;;;;;;;;;25.90;33.40;;;;;;1505875;78;758;-70
2022/08/13 02:04:26;;;;;;;;;;;25.80;33.30;;;;;;1513557;78;1941;-70
2022/08/13 02:06:31;;;;;;;;;;;25.90;33.40;;;;;;1499424;78;731;-69
2022/08/13 02:08:36;;;;;;;;;;;25.80;33.30;;;;;;1505884;78;730;-70
2022/08/13 02:10:37;;;;;;;;;;;25.80;33.40;;;;;;1500945;78;1512;-70
2022/08/13 02:12:39;;;;;;;;;;;25.90;33.30;;;;;;1513304;78;740;-70
2022/08/13 02:17:25;;;;;;;;;;;25.90;33.30;;;;;;1492195;77;678;-66
2022/08/13 02:19:09;;;;;;;;;;;25.80;33.20;;;;;;1471048;79;1673;-65
2022/08/13 02:21:11;;;;;;;;;;;25.90;33.30;;;;;;1458357;79;682;-66
2022/08/13 02:23:15;;;;;;;;;;;25.90;33.40;;;;;;1492913;79;1950;-67
2022/08/13 02:25:17;;;;;;;;;;;25.80;33.40;;;;;;1498598;78;1924;-66
2022/08/13 02:27:20;;;;;;;;;;;25.80;33.30;;;;;;1509861;77;760;-66
2022/08/13 02:29:22;;;;;;;;;;;25.80;33.20;;;;;;1506249;77;736;-66
2022/08/13 02:31:26;;;;;;;;;;;25.80;33.30;;;;;;1509520;77;596;-65
2022/08/13 02:33:28;;;;;;;;;;;25.80;33.30;;;;;;1512612;77;762;-67
2022/08/13 02:35:30;;;;;;;;;;;25.80;33.30;;;;;;1506259;77;1167;-64
2022/08/13 02:37:32;;;;;;;;;;;25.80;33.30;;;;;;1510513;77;795;-66
2022/08/13 02:39:34;;;;;;;;;;;25.80;33.40;;;;;;1506336;77;846;-65
2022/08/13 02:41:39;;;;;;;;;;;25.80;33.30;;;;;;1507242;77;793;-65
2022/08/13 02:43:42;;;;;;;;;;;25.90;33.40;;;;;;1507908;77;1926;-65
2022/08/13 02:45:46;;;;;;;;;;;25.80;33.30;;;;;;1509695;77;1179;-64
2022/08/13 02:47:48;;;;;;;;;;;25.80;33.30;;;;;;1509332;77;1336;-65
2022/08/13 02:49:51;;;;;;;;;;;25.80;33.40;;;;;;1512149;77;842;-65
2022/08/13 02:51:54;;;;;;;;;;;25.80;33.40;;;;;;1517448;77;764;-66
2022/08/13 02:53:56;;;;;;;;;;;25.70;33.30;;;;;;1522494;77;782;-66
2022/08/13 02:55:59;;;;;;;;;;;25.80;33.30;;;;;;1508405;77;1143;-67
2022/08/13 02:58:01;;;;;;;;;;;25.80;33.20;;;;;;1516758;77;791;-65
2022/08/13 03:00:03;;;;;;;;;;;25.70;33.20;;;;;;1511476;77;559;-65
2022/08/13 03:02:05;;;;;;;;;;;25.80;33.20;;;;;;1513025;77;758;-65
2022/08/13 03:04:07;;;;;;;;;;;25.90;33.30;;;;;;1507250;77;1933;-67
2022/08/13 03:06:09;;;;;;;;;;;25.80;33.30;;;;;;1505956;77;1165;-66
2022/08/13 03:08:11;;;;;;;;;;;25.70;33.30;;;;;;1510090;77;713;-65
2022/08/13 03:10:14;;;;;;;;;;;25.70;33.40;;;;;;1515017;77;833;-65
2022/08/13 03:12:16;;;;;;;;;;;25.70;33.30;;;;;;1520509;77;574;-65
2022/08/13 03:14:18;;;;;;;;;;;25.90;33.30;;;;;;1517334;77;643;-65
2022/08/13 03:16:22;;;;;;;;;;;25.70;33.30;;;;;;1510868;77;1095;-66
2022/08/13 03:18:24;;;;;;;;;;;25.80;33.40;;;;;;1518771;77;752;-67
2022/08/13 03:20:26;;;;;;;;;;;25.80;33.30;;;;;;1512998;77;663;-66
2022/08/13 03:22:28;;;;;;;;;;;25.80;33.40;;;;;;1513262;77;769;-65
2022/08/13 03:24:30;;;;;;;;;;;25.70;33.40;;;;;;1514190;77;1928;-65
2022/08/13 03:26:32;;;;;;;;;;;25.80;33.40;;;;;;1516842;77;1146;-68
2022/08/13 03:28:34;;;;;;;;;;;25.80;33.40;;;;;;1506451;77;791;-66
2022/08/13 03:30:36;;;;;;;;;;;25.70;33.40;;;;;;1518986;77;812;-64
2022/08/13 03:32:40;;;;;;;;;;;25.70;33.40;;;;;;1515126;77;829;-65
2022/08/13 03:34:42;;;;;;;;;;;25.70;33.30;;;;;;1509053;77;1816;-64
2022/08/13 03:36:44;;;;;;;;;;;25.70;33.30;;;;;;1517603;77;1094;-65
2022/08/13 03:38:46;;;;;;;;;;;25.80;33.20;;;;;;1516387;77;721;-65
2022/08/13 03:41:00;;;;;;;;;;;25.70;33.20;;;;;;1517442;77;794;-66
2022/08/13 03:43:04;;;;;;;;;;;25.70;33.20;;;;;;1510499;77;626;-65
2022/08/13 03:45:07;;;;;;;;;;;25.70;33.20;;;;;;1504472;77;2045;-65
2022/08/13 03:47:09;;;;;;;;;;;25.70;33.20;;;;;;1510092;77;723;-65
2022/08/13 03:49:11;;;;;;;;;;;25.70;33.20;;;;;;1513660;77;770;-65
2022/08/13 03:51:13;;;;;;;;;;;25.70;33.20;;;;;;1514748;77;758;-65
2022/08/13 03:53:18;;;;;;;;;;;25.70;33.20;;;;;;1507172;77;706;-65
2022/08/13 03:55:20;;;;;;;;;;;25.70;33.20;;;;;;1505885;77;1165;-65
2022/08/13 03:57:22;;;;;;;;;;;25.70;33.20;;;;;;1507258;78;722;-65
2022/08/13 03:59:24;;;;;;;;;;;25.70;33.20;;;;;;1514558;77;776;-65
2022/08/13 04:01:26;;;;;;;;;;;25.70;33.20;;;;;;1510324;77;709;-65
2022/08/13 04:03:28;;;;;;;;;;;25.70;33.20;;;;;;1510691;77;1925;-65
2022/08/13 04:05:30;;;;;;;;;;;25.60;33.20;;;;;;1505547;78;1167;-65
2022/08/13 04:07:32;;;;;;;;;;;25.60;33.20;;;;;;1517494;77;786;-65
2022/08/13 04:09:34;;;;;;;;;;;25.70;33.20;;;;;;1513241;78;657;-65
2022/08/13 04:11:35;;;;;;;;;;;25.70;33.30;;;;;;1508268;77;802;-67
2022/08/13 04:13:38;;;;;;;;;;;25.70;33.30;;;;;;1516976;77;734;-66
2022/08/13 04:15:42;;;;;;;;;;;25.70;33.30;;;;;;1518212;77;1155;-65
2022/08/13 04:17:43;;;;;;;;;;;25.60;33.40;;;;;;1502404;77;1780;-65
2022/08/13 04:19:45;;;;;;;;;;;25.60;33.40;;;;;;1508799;77;874;-65
2022/08/13 04:21:47;;;;;;;;;;;25.70;33.40;;;;;;1510317;78;749;-66
2022/08/13 04:23:49;;;;;;;;;;;25.70;33.40;;;;;;1511393;77;1933;-68
2022/08/13 04:25:51;;;;;;;;;;;25.70;33.40;;;;;;1512008;77;1155;-65
2022/08/13 04:27:54;;;;;;;;;;;25.60;33.30;;;;;;1511562;77;801;-66
2022/08/13 04:29:56;;;;;;;;;;;25.70;33.30;;;;;;1506520;77;796;-65
2022/08/13 04:32:03;;;;;;;;;;;25.70;33.30;;;;;;1508615;77;703;-65
2022/08/13 04:34:02;;;;;;;;;;;25.70;33.20;;;;;;1507503;77;1604;-66
2022/08/13 04:36:04;;;;;;;;;;;25.70;33.30;;;;;;1510440;77;1084;-68
2022/08/13 04:38:06;;;;;;;;;;;25.70;33.20;;;;;;1515812;77;823;-67
2022/08/13 04:40:10;;;;;;;;;;;25.60;33.20;;;;;;1507953;77;1552;-68
2022/08/13 04:42:11;;;;;;;;;;;25.70;33.30;;;;;;1501641;77;799;-66
2022/08/13 04:44:13;;;;;;;;;;;25.70;33.20;;;;;;1507887;77;1943;-67
2022/08/13 04:46:15;;;;;;;;;;;25.70;33.20;;;;;;1517894;76;1287;-65
2022/08/13 04:48:17;;;;;;;;;;;25.70;33.20;;;;;;1506623;77;713;-66
2022/08/13 04:50:19;;;;;;;;;;;25.70;33.20;;;;;;1506626;77;789;-66
2022/08/13 04:52:23;;;;;;;;;;;25.70;33.20;;;;;;1510853;77;800;-67
2022/08/13 04:54:25;;;;;;;;;;;25.70;33.10;;;;;;1506240;77;737;-65
2022/08/13 04:56:27;;;;;;;;;;;25.60;33.20;;;;;;1515279;77;1137;-66
2022/08/13 04:58:35;;;;;;;;;;;25.60;33.20;;;;;;1506899;77;763;-65
2022/08/13 05:00:37;;;;;;;;;;;25.70;33.20;;;;;;1510788;77;944;-66
2022/08/13 05:02:39;;;;;;;;;;;25.60;33.30;;;;;;1506045;78;772;-64
2022/08/13 05:04:41;;;;;;;;;;;25.70;33.20;;;;;;1509631;77;1937;-65
2022/08/13 05:06:43;;;;;;;;;;;25.70;33.20;;;;;;1506952;77;1055;-64
2022/08/13 05:08:45;;;;;;;;;;;25.60;33.20;;;;;;1505737;78;786;-64
2022/08/13 05:10:47;;;;;;;;;;;25.60;33.20;;;;;;1512830;78;775;-64
2022/08/13 05:12:49;;;;;;;;;;;25.50;33.20;;;;;;1508418;77;935;-63
2022/08/13 05:14:51;;;;;;;;;;;25.60;33.30;;;;;;1506214;77;805;-65
2022/08/13 05:16:53;;;;;;;;;;;25.50;33.30;;;;;;1507469;77;826;-64
2022/08/13 05:18:55;;;;;;;;;;;25.50;33.50;;;;;;1517563;77;851;-68
2022/08/13 05:20:59;;;;;;;;;;;25.60;33.40;;;;;;1509039;77;760;-63
2022/08/13 05:23:02;;;;;;;;;;;25.60;33.50;;;;;;1508591;78;712;-63
2022/08/13 05:25:04;;;;;;;;;;;25.60;33.40;;;;;;1506913;77;1917;-62
2022/08/13 05:27:09;;;;;;;;;;;25.60;33.70;;;;;;1503398;78;802;-64
2022/08/13 05:29:10;;;;;;;;;;;25.60;33.80;;;;;;1512028;77;1737;-65
2022/08/13 05:31:12;;;;;;;;;;;25.60;33.70;;;;;;1512300;77;792;-63
2022/08/13 05:33:14;;;;;;;;;;;25.70;33.80;;;;;;1507214;77;750;-63
2022/08/13 05:35:16;;;;;;;;;;;25.70;33.90;;;;;;1515568;77;1217;-62
2022/08/13 05:37:18;;;;;;;;;;;25.70;33.90;;;;;;1508030;77;1332;-63
2022/08/13 05:39:20;;;;;;;;;;;25.80;33.90;;;;;;1504886;78;777;-63
2022/08/13 05:41:23;;;;;;;;;;;25.80;33.90;;;;;;1507976;78;724;-62
2022/08/13 05:43:27;;;;;;;;;;;25.90;34.10;;;;;;1502338;77;757;-62
2022/08/13 05:45:29;;;;;;;;;;;25.90;34.10;;;;;;1505851;78;1926;-63
2022/08/13 05:47:31;;;;;;;;;;;25.90;33.90;;;;;;1517176;77;768;-63
2022/08/13 05:49:33;;;;;;;;;;;25.90;34.00;;;;;;1519594;77;748;-64
2022/08/13 05:51:35;;;;;;;;;;;25.90;34.40;;;;;;1511732;77;830;-64
2022/08/13 05:53:38;;;;;;;;;;;25.90;34.20;;;;;;1514822;77;758;-61
2022/08/13 05:55:40;;;;;;;;;;;26.00;34.80;;;;;;1515884;76;1179;-62
2022/08/13 05:57:42;;;;;;;;;;;26.00;34.70;;;;;;1499267;78;762;-62
2022/08/13 06:04:25;;;;;;;;;;;25.90;34.30;;;;;;1520249;77;1899;-63
2022/08/13 06:06:28;;;;;;;;;;;25.90;34.40;;;;;;1515970;77;1142;-62
2022/08/13 06:08:35;;;;;;;;;;;25.90;34.50;;;;;;1517901;77;719;-62
2022/08/13 06:10:37;;;;;;;;;;;25.80;34.60;;;;;;1517086;77;802;-63
2022/08/13 06:12:40;;;;;;;;;;;25.80;34.70;;;;;;1517959;77;825;-62
2022/08/13 06:14:43;;;;;;;;;;;25.70;34.70;;;;;;1503916;77;1935;-60
2022/08/13 06:16:45;;;;;;;;;;;25.70;34.90;;;;;;1505569;77;1122;-63
2022/08/13 06:18:48;;;;;;;;;;;25.70;35.00;;;;;;1510231;77;773;-62
2022/08/13 06:20:51;;;;;;;;;;;25.70;35.10;;;;;;1512418;77;908;-63
2022/08/13 06:22:53;;;;;;;;;;;25.70;35.10;;;;;;1507110;78;777;-61
2022/08/13 06:24:55;;;;;;;;;;;25.70;35.10;;;;;;1516440;77;1933;-61
2022/08/13 06:27:00;;;;;;;;;;;25.80;35.30;;;;;;1509954;77;834;-65
2022/08/13 06:29:01;;;;;;;;;;;25.90;35.50;;;;;;1509064;78;1521;-65
2022/08/13 06:31:04;;;;;;;;;;;25.90;35.70;;;;;;1503564;77;672;-62
2022/08/13 06:33:06;;;;;;;;;;;25.90;36.00;;;;;;1509980;77;1534;-62
2022/08/13 06:35:08;;;;;;;;;;;25.90;35.70;;;;;;1508976;77;1154;-62
2022/08/13 06:37:10;;;;;;;;;;;26.00;36.20;;;;;;1510598;77;725;-62
2022/08/13 06:39:12;;;;;;;;;;;25.90;35.70;;;;;;1505593;78;783;-61
2022/08/13 06:41:14;;;;;;;;;;;26.00;36.10;;;;;;1507583;77;740;-61
2022/08/13 06:43:17;;;;;;;;;;;25.90;35.60;;;;;;1508171;77;690;-62
2022/08/13 06:45:20;;;;;;;;;;;25.90;35.60;;;;;;1508733;77;1913;-59
2022/08/13 06:47:23;;;;;;;;;;;25.90;35.60;;;;;;1512275;77;785;-62
2022/08/13 06:49:25;;;;;;;;;;;25.90;35.70;;;;;;1506757;78;745;-62
2022/08/13 06:51:27;;;;;;;;;;;25.90;35.70;;;;;;1509011;77;806;-61
2022/08/13 06:53:30;;;;;;;;;;;25.90;35.70;;;;;;1508774;78;723;-62
2022/08/13 06:55:36;;;;;;;;;;;25.90;35.70;;;;;;1508878;77;1144;-62
2022/08/13 06:57:36;;;;;;;;;;;25.90;35.70;;;;;;1508188;77;1653;-63
2022/08/13 06:59:39;;;;;;;;;;;25.90;35.60;;;;;;1514164;77;660;-64
2022/08/13 07:01:41;;;;;;;;;;;26.00;36.20;;;;;;1510951;77;672;-63
2022/08/13 07:03:43;;;;;;;;;;;26.00;36.20;;;;;;1512248;77;811;-68
2022/08/13 07:05:45;;;;;;;;;;;26.10;36.10;;;;;;1514148;77;1915;-64
2022/08/13 07:07:48;;;;;;;;;;;26.00;36.30;;;;;;1505165;78;720;-64
2022/08/13 07:09:50;;;;;;;;;;;26.00;36.20;;;;;;1509105;77;799;-65
2022/08/13 07:11:51;;;;;;;;;;;26.00;36.10;;;;;;1515885;77;750;-63
2022/08/13 07:13:57;;;;;;;;;;;26.00;36.10;;;;;;1509852;77;755;-65
2022/08/13 07:15:59;;;;;;;;;;;25.90;35.50;;;;;;1523016;77;1129;-65
2022/08/13 07:18:01;;;;;;;;;;;25.90;35.60;;;;;;1510936;77;787;-65
2022/08/13 07:20:04;;;;;;;;;;;25.90;35.70;;;;;;1512569;77;703;-65
2022/08/13 07:22:06;;;;;;;;;;;25.90;35.70;;;;;;1513472;77;728;-65
2022/08/13 07:24:08;;;;;;;;;;;25.80;35.90;;;;;;1518416;77;754;-65
2022/08/13 07:26:16;;;;;;;;;;;25.80;35.90;;;;;;1511618;77;1937;-65
2022/08/13 07:28:18;;;;;;;;;;;25.80;35.90;;;;;;1507125;77;1638;-65
2022/08/13 07:30:18;;;;;;;;;;;25.70;35.90;;;;;;1511053;77;1661;-65
2022/08/13 07:32:20;;;;;;;;;;;25.80;36.00;;;;;;1506646;77;763;-65
2022/08/13 07:34:25;;;;;;;;;;;25.70;36.00;;;;;;1511984;77;721;-65
2022/08/13 07:36:27;;;;;;;;;;;25.70;36.00;;;;;;1512691;77;1683;-65
2022/08/13 07:38:31;;;;;;;;;;;25.70;36.00;;;;;;1514165;78;714;-65
2022/08/13 07:40:33;;;;;;;;;;;25.70;36.10;;;;;;1511018;77;1896;-63
2022/08/13 07:42:38;;;;;;;;;;;25.70;36.00;;;;;;1507801;77;717;-65
2022/08/13 07:44:40;;;;;;;;;;;25.70;36.00;;;;;;1517874;77;1930;-65
2022/08/13 07:46:42;;;;;;;;;;;25.70;36.00;;;;;;1515767;77;1111;-64
2022/08/13 07:48:49;;;;;;;;;;;25.70;36.00;;;;;;1509501;77;781;-64
2022/08/13 07:50:51;;;;;;;;;;;25.70;36.10;;;;;;1511759;77;814;-64
2022/08/13 07:52:59;;;;;;;;;;;25.70;36.10;;;;;;1508953;77;734;-65
2022/08/13 07:55:01;;;;;;;;;;;25.70;36.10;;;;;;1504906;77;1185;-65
2022/08/13 07:57:03;;;;;;;;;;;25.70;36.10;;;;;;1507189;77;854;-65
2022/08/13 07:59:07;;;;;;;;;;;25.70;36.10;;;;;;1521819;77;819;-65
2022/08/13 08:01:09;;;;;;;;;;;25.60;36.00;;;;;;1513302;77;723;-65
2022/08/13 08:03:12;;;;;;;;;;;25.70;36.10;;;;;;1489082;79;1235;-65
2022/08/13 08:05:14;;;;;;;;;;;25.70;36.10;;;;;;1510308;77;1915;-65
2022/08/13 08:07:16;;;;;;;;;;;25.70;36.10;;;;;;1521070;77;823;-65
2022/08/13 08:09:20;;;;;;;;;;;25.70;36.10;;;;;;1512058;77;803;-65
2022/08/13 08:13:34;;;;;;;;;;;25.70;36.00;;;;;;1482498;79;1070;-66
2022/08/13 08:15:36;;;;;;;;;;;25.70;36.00;;;;;;1515990;70;2064;-64
2022/08/13 08:17:40;;;;;;;;;;;25.70;36.00;;;;;;1547285;74;739;-64
2022/08/13 08:19:42;;;;;;;;;;;25.70;36.00;;;;;;1562327;75;1310;-62
2022/08/13 08:21:44;;;;;;;;;;;25.80;36.00;;;;;;1568434;74;701;-64
2022/08/13 08:23:46;;;;;;;;;;;25.80;36.00;;;;;;1568059;75;691;-65
2022/08/13 08:25:48;;;;;;;;;;;25.70;35.90;;;;;;1557539;76;1931;-66
2022/08/13 08:27:50;;;;;;;;;;;25.70;35.90;;;;;;1556453;74;722;-65
2022/08/13 08:29:52;;;;;;;;;;;25.70;35.80;;;;;;1567388;74;732;-64
2022/08/13 08:31:54;;;;;;;;;;;25.70;35.80;;;;;;1572955;74;775;-65
2022/08/13 08:33:57;;;;;;;;;;;25.80;35.80;;;;;;1570089;74;725;-64
2022/08/13 08:35:59;;;;;;;;;;;25.70;35.90;;;;;;1563160;74;1172;-64
2022/08/13 08:42:42;;;;;;;;;;;25.70;35.90;;;;;;1575411;74;621;-66
2022/08/13 08:44:44;;;;;;;;;;;25.70;35.90;;;;;;1591811;74;675;-65
2022/08/13 08:46:47;;;;;;;;;;;25.70;35.80;;;;;;1556014;74;1943;-65
2022/08/13 08:48:49;;;;;;;;;;;25.70;35.60;;;;;;1558789;74;669;-65
2022/08/13 08:50:51;;;;;;;;;;;25.70;35.70;;;;;;1559671;74;729;-65
2022/08/13 08:55:13;;;;;;;;;;;25.70;35.70;;;;;;1588577;74;1644;-66
2022/08/13 08:57:18;;;;;;;;;;;25.70;35.70;;;;;;1575254;74;1212;-67
2022/08/13 08:59:20;;;;;;;;;;;25.70;35.70;;;;;;1575116;73;782;-65
2022/08/13 09:01:24;;;;;;;;;;;25.70;35.60;;;;;;1547369;76;703;-64
2022/08/13 09:03:27;;;;;;;;;;;25.70;35.70;;;;;;1563406;74;1249;-65
2022/08/13 09:05:29;;;;;;;;;;;25.70;35.60;;;;;;1582191;75;1902;-66
2022/08/13 09:07:31;;;;;;;;;;;25.70;35.60;;;;;;1566954;75;794;-64
2022/08/13 09:09:33;;;;;;;;;;;25.90;35.50;;;;;;1564801;75;703;-65
2022/08/13 09:11:38;;;;;;;;;;;25.90;35.30;;;;;;1564063;75;701;-66
2022/08/13 09:13:42;;;;;;;;;;;25.90;35.20;;;;;;1575415;75;701;-64
2022/08/13 09:15:44;;;;;;;;;;;25.90;35.20;;;;;;1568476;75;1168;-66
2022/08/13 09:17:46;;;;;;;;;;;25.90;35.20;;;;;;1576531;75;753;-65
2022/08/13 09:19:48;;;;;;;;;;;25.80;35.20;;;;;;1562695;75;736;-66
2022/08/13 09:21:50;;;;;;;;;;;25.80;35.30;;;;;;1567053;75;1473;-65
2022/08/13 09:23:52;;;;;;;;;;;25.80;35.30;;;;;;1567298;75;774;-64
2022/08/13 09:25:54;;;;;;;;;;;25.80;35.30;;;;;;1568350;75;1925;-66
2022/08/13 09:27:56;;;;;;;;;;;25.80;35.30;;;;;;1571401;75;883;-64
2022/08/13 09:29:58;;;;;;;;;;;25.80;35.40;;;;;;1572781;75;715;-64
2022/08/13 09:32:05;;;;;;;;;;;25.80;35.20;;;;;;1588060;73;694;-64
2022/08/13 09:34:03;;;;;;;;;;;25.90;35.20;;;;;;1596245;74;1128;-65
2022/08/13 09:36:13;;;;;;;;;;;25.90;35.20;;;;;;1563797;74;1101;-65
2022/08/13 09:38:12;;;;;;;;;;;25.90;35.10;;;;;;1584450;73;852;-65
2022/08/13 09:40:14;;;;;;;;;;;25.90;35.00;;;;;;1597147;73;705;-64
2022/08/13 09:42:26;;;;;;;;;;;25.90;35.00;;;;;;1583428;73;736;-65
2022/08/13 09:44:28;;;;;;;;;;;25.90;34.90;;;;;;1587076;73;708;-65
2022/08/13 09:46:31;;;;;;;;;;;26.00;35.40;;;;;;1590490;74;1905;-65
2022/08/13 09:48:33;;;;;;;;;;;26.00;35.20;;;;;;1586745;74;726;-64
2022/08/13 09:50:41;;;;;;;;;;;26.00;35.20;;;;;;1578565;73;762;-65
2022/08/13 09:52:38;;;;;;;;;;;26.00;35.20;;;;;;1582563;74;1157;-65
2022/08/13 09:54:41;;;;;;;;;;;26.00;35.10;;;;;;1595996;74;807;-66
2022/08/13 09:56:43;;;;;;;;;;;26.00;35.10;;;;;;1586504;73;1145;-62
2022/08/13 09:58:50;;;;;;;;;;;26.00;35.10;;;;;;1562285;74;618;-64
2022/08/13 10:00:49;;;;;;;;;;;26.00;35.00;;;;;;1572540;75;1130;-64
2022/08/13 10:02:54;;;;;;;;;;;26.00;35.00;;;;;;1566186;75;625;-65
2022/08/13 10:04:57;;;;;;;;;;;26.00;35.00;;;;;;1571942;75;1732;-64
2022/08/13 10:06:59;;;;;;;;;;;26.00;35.00;;;;;;1595774;74;1946;-66
2022/08/13 10:09:00;;;;;;;;;;;26.00;35.00;;;;;;1583304;73;701;-65
2022/08/13 10:11:02;;;;;;;;;;;26.00;35.00;;;;;;1579019;73;731;-65
2022/08/13 10:13:04;;;;;;;;;;;26.00;35.00;;;;;;1573282;74;731;-66
2022/08/13 10:15:08;;;;;;;;;;;25.90;34.50;;;;;;1572106;75;734;-64
2022/08/13 10:17:10;;;;;;;;;;;26.00;35.00;;;;;;1565254;75;1098;-64
2022/08/13 10:19:11;;;;;;;;;;;25.90;34.50;;;;;;1585076;74;1499;-64
2022/08/13 10:21:14;;;;;;;;;;;25.90;34.60;;;;;;1576755;74;714;-65
2022/08/13 10:23:16;;;;;;;;;;;25.90;34.60;;;;;;1568733;74;678;-64
2022/08/13 10:25:18;;;;;;;;;;;25.90;34.60;;;;;;1592904;74;1162;-64
2022/08/13 10:27:21;;;;;;;;;;;25.90;34.60;;;;;;1579130;74;1921;-62
2022/08/13 10:29:23;;;;;;;;;;;25.90;34.60;;;;;;1555881;74;759;-64
2022/08/13 10:31:28;;;;;;;;;;;25.90;34.50;;;;;;1595322;73;725;-65
2022/08/13 10:33:28;;;;;;;;;;;26.00;35.10;;;;;;1595361;73;1184;-65
2022/08/13 10:35:30;;;;;;;;;;;25.90;34.50;;;;;;1555288;76;1137;-64
2022/08/13 10:37:34;;;;;;;;;;;26.00;35.00;;;;;;1553772;74;716;-65
2022/08/13 10:39:36;;;;;;;;;;;26.00;35.00;;;;;;1571176;74;684;-65
2022/08/13 10:41:38;;;;;;;;;;;26.00;35.00;;;;;;1585907;73;787;-65
2022/08/13 10:43:40;;;;;;;;;;;26.00;35.00;;;;;;1564329;74;730;-65
2022/08/13 10:45:42;;;;;;;;;;;25.90;34.40;;;;;;1567552;74;1913;-63
2022/08/13 10:47:45;;;;;;;;;;;25.90;34.50;;;;;;1574675;74;715;-65
2022/08/13 10:49:50;;;;;;;;;;;25.90;34.60;;;;;;1569500;74;740;-65
2022/08/13 10:51:52;;;;;;;;;;;25.90;34.60;;;;;;1552251;76;774;-65
2022/08/13 10:53:58;;;;;;;;;;;25.90;34.50;;;;;;1567845;74;777;-65
2022/08/13 10:56:00;;;;;;;;;;;25.90;34.40;;;;;;1571192;74;1212;-65
2022/08/13 10:58:13;;;;;;;;;;;26.00;35.00;;;;;;1590522;73;818;-65
2022/08/13 11:00:06;;;;;;;;;;;26.00;35.00;;;;;;1572912;74;1101;-64
2022/08/13 11:02:08;;;;;;;;;;;25.90;34.40;;;;;;1587905;74;750;-65
2022/08/13 11:04:10;;;;;;;;;;;26.00;35.00;;;;;;1583715;74;729;-65
2022/08/13 11:06:12;;;;;;;;;;;26.00;35.00;;;;;;1588093;74;1927;-64
2022/08/13 11:08:14;;;;;;;;;;;26.00;35.00;;;;;;1590190;74;731;-62
2022/08/13 11:10:18;;;;;;;;;;;26.00;34.90;;;;;;1587198;74;690;-65
2022/08/13 11:12:20;;;;;;;;;;;25.90;34.40;;;;;;1588105;74;691;-64
2022/08/13 11:14:22;;;;;;;;;;;26.00;34.90;;;;;;1593336;74;1480;-65
2022/08/13 11:18:34;;;;;;;;;;;26.00;34.80;;;;;;1579984;74;862;-66
2022/08/13 11:21:02;;;;;;;;;;;26.00;34.80;;;;;;1591913;74;697;-66
2022/08/13 11:22:39;;;;;;;;;;;26.00;34.70;;;;;;1582694;74;983;-64
2022/08/13 11:24:41;;;;;;;;;;;26.00;34.80;;;;;;1596486;74;746;-65
2022/08/13 11:26:43;;;;;;;;;;;26.10;34.70;;;;;;1581186;74;1935;-64
2022/08/13 11:28:45;;;;;;;;;;;26.00;34.80;;;;;;1582879;74;686;-65
2022/08/13 11:30:47;;;;;;;;;;;26.00;34.80;;;;;;1591063;74;659;-64
2022/08/13 11:32:49;;;;;;;;;;;25.90;34.30;;;;;;1581891;74;719;-65
2022/08/13 11:34:51;;;;;;;;;;;25.90;34.20;;;;;;1591028;74;731;-66
2022/08/13 11:36:53;;;;;;;;;;;26.00;34.70;;;;;;1577924;74;1134;-66
2022/08/13 11:38:55;;;;;;;;;;;26.00;34.70;;;;;;1590543;74;799;-65
2022/08/13 11:40:57;;;;;;;;;;;26.00;34.70;;;;;;1590460;74;701;-64
2022/08/13 11:42:59;;;;;;;;;;;26.00;34.70;;;;;;1589488;74;758;-65
2022/08/13 11:45:01;;;;;;;;;;;25.90;34.20;;;;;;1588727;74;726;-62
2022/08/13 11:47:03;;;;;;;;;;;25.90;34.20;;;;;;1573119;74;1950;-64
2022/08/13 11:49:05;;;;;;;;;;;25.90;34.20;;;;;;1574391;74;659;-65
2022/08/13 11:51:07;;;;;;;;;;;25.90;34.20;;;;;;1594031;74;734;-65
2022/08/13 11:53:09;;;;;;;;;;;25.80;34.30;;;;;;1580182;74;762;-65
2022/08/13 11:55:11;;;;;;;;;;;25.90;34.40;;;;;;1589244;74;715;-65
2022/08/13 11:57:13;;;;;;;;;;;25.90;34.30;;;;;;1586453;74;1178;-64
2022/08/13 11:59:15;;;;;;;;;;;25.80;34.40;;;;;;1584394;74;725;-65
2022/08/13 12:01:18;;;;;;;;;;;25.80;34.40;;;;;;1576772;74;801;-66
2022/08/13 12:03:20;;;;;;;;;;;25.80;34.40;;;;;;1583947;74;876;-65
2022/08/13 12:05:22;;;;;;;;;;;25.90;34.40;;;;;;1592273;74;1155;-65
2022/08/13 12:07:24;;;;;;;;;;;25.80;34.40;;;;;;1584597;74;1937;-64
2022/08/13 12:09:26;;;;;;;;;;;25.80;34.40;;;;;;1580109;74;699;-66
2022/08/13 12:11:29;;;;;;;;;;;25.70;34.40;;;;;;1580134;74;1428;-67
2022/08/13 12:13:31;;;;;;;;;;;25.80;34.40;;;;;;1585982;74;718;-65
2022/08/13 12:15:33;;;;;;;;;;;25.80;34.40;;;;;;1593232;74;1097;-65
2022/08/13 12:17:35;;;;;;;;;;;25.80;34.30;;;;;;1585146;74;767;-64
2022/08/13 12:19:37;;;;;;;;;;;25.90;34.30;;;;;;1585108;74;744;-65
2022/08/13 12:21:39;;;;;;;;;;;25.80;34.20;;;;;;1583601;74;607;-65
2022/08/13 12:23:41;;;;;;;;;;;25.80;34.20;;;;;;1594359;74;777;-67
2022/08/13 12:25:42;;;;;;;;;;;25.90;34.20;;;;;;1583424;74;1179;-64
2022/08/13 12:27:44;;;;;;;;;;;25.80;34.20;;;;;;1577846;74;1924;-66
2022/08/13 12:29:46;;;;;;;;;;;25.70;34.20;;;;;;1584804;74;781;-65
2022/08/13 12:31:48;;;;;;;;;;;25.80;34.20;;;;;;1588106;74;718;-66
2022/08/13 12:33:50;;;;;;;;;;;25.80;34.20;;;;;;1573635;74;627;-65
2022/08/13 12:35:52;;;;;;;;;;;25.80;34.20;;;;;;1581397;74;1136;-65
2022/08/13 12:37:54;;;;;;;;;;;25.80;34.20;;;;;;1582589;74;739;-65